sensor_id;sensor_type;location;lat;lon;timestamp;pressure;altitude;pressure_sealevel;temperature;humidity
76815;BME280;65768;49.906;19.384;2023-05-29T00:06:48;98391.79;;;12.70;68.63
76815;BME280;65768;49.906;19.384;2023-05-29T00:09:23;98392.16;;;12.66;69.87
76815;BME280;65768;49.906;19.384;2023-05-29T00:12:06;98394.78;;;12.66;69.92
76815;BME280;65768;49.906;19.384;2023-05-29T00:24:12;98397.80;;;12.56;70.29
76815;BME280;65768;49.906;19.384;2023-05-29T00:26:59;98397.46;;;12.55;70.25
76815;BME280;65768;49.906;19.384;2023-05-29T00:35:24;98390.19;;;12.42;70.64
76815;BME280;65768;49.906;19.384;2023-05-29T00:38:14;98393.84;;;12.46;70.74
76815;BME280;65768;49.906;19.384;2023-05-29T00:40:56;98391.39;;;12.46;70.18
76815;BME280;65768;49.906;19.384;2023-05-29T00:47:29;98387.21;;;12.40;70.35
76815;BME280;65768;49.906;19.384;2023-05-29T00:53:28;98383.73;;;12.34;70.91
76815;BME280;65768;49.906;19.384;2023-05-29T00:56:16;98388.83;;;12.29;70.69
76815;BME280;65768;49.906;19.384;2023-05-29T01:08:43;98391.84;;;12.16;70.93
76815;BME280;65768;49.906;19.384;2023-05-29T01:11:57;98385.73;;;12.17;71.09
76815;BME280;65768;49.906;19.384;2023-05-29T01:14:55;98381.52;;;12.19;71.24
76815;BME280;65768;49.906;19.384;2023-05-29T01:24:22;98375.59;;;12.18;70.65
76815;BME280;65768;49.906;19.384;2023-05-29T01:27:34;98379.27;;;12.19;71.02
76815;BME280;65768;49.906;19.384;2023-05-29T01:43:18;98378.80;;;11.79;71.02
76815;BME280;65768;49.906;19.384;2023-05-29T02:06:48;98368.02;;;11.49;71.79
76815;BME280;65768;49.906;19.384;2023-05-29T02:16:17;98364.20;;;11.35;72.16
76815;BME280;65768;49.906;19.384;2023-05-29T02:22:07;98357.20;;;11.51;72.31
76815;BME280;65768;49.906;19.384;2023-05-29T02:25:30;98362.60;;;11.53;72.68
76815;BME280;65768;49.906;19.384;2023-05-29T02:28:17;98365.39;;;11.55;72.77
76815;BME280;65768;49.906;19.384;2023-05-29T02:31:17;98358.42;;;11.56;72.39
76815;BME280;65768;49.906;19.384;2023-05-29T02:40:53;98361.40;;;11.36;71.51
76815;BME280;65768;49.906;19.384;2023-05-29T02:46:45;98365.23;;;11.27;71.69
76815;BME280;65768;49.906;19.384;2023-05-29T02:53:17;98365.41;;;11.36;72.42
76815;BME280;65768;49.906;19.384;2023-05-29T02:56:01;98364.02;;;11.41;71.58
76815;BME280;65768;49.906;19.384;2023-05-29T02:58:46;98361.75;;;11.33;70.83
76815;BME280;65768;49.906;19.384;2023-05-29T03:08:07;98353.55;;;11.37;72.45
76815;BME280;65768;49.906;19.384;2023-05-29T03:10:56;98351.27;;;11.35;71.49
76815;BME280;65768;49.906;19.384;2023-05-29T03:14:07;98350.05;;;11.38;71.83
76815;BME280;65768;49.906;19.384;2023-05-29T03:17:18;98347.95;;;11.50;72.47
76815;BME280;65768;49.906;19.384;2023-05-29T03:23:36;98347.88;;;11.82;71.50
76815;BME280;65768;49.906;19.384;2023-05-29T03:39:07;98350.99;;;12.07;70.69
76815;BME280;65768;49.906;19.384;2023-05-29T03:42:18;98356.71;;;12.18;70.05
76815;BME280;65768;49.906;19.384;2023-05-29T03:54:12;98362.34;;;12.51;69.97
76815;BME280;65768;49.906;19.384;2023-05-29T03:57:24;98363.23;;;12.44;70.00
76815;BME280;65768;49.906;19.384;2023-05-29T04:00:24;98360.77;;;12.49;70.94
76815;BME280;65768;49.906;19.384;2023-05-29T04:09:06;98367.76;;;13.09;69.14
76815;BME280;65768;49.906;19.384;2023-05-29T04:15:16;98363.05;;;13.33;69.47
76815;BME280;65768;49.906;19.384;2023-05-29T04:17:53;98365.00;;;13.50;68.64
76815;BME280;65768;49.906;19.384;2023-05-29T04:20:28;98363.45;;;13.66;68.57
76815;BME280;65768;49.906;19.384;2023-05-29T04:23:20;98363.52;;;13.76;67.70
76815;BME280;65768;49.906;19.384;2023-05-29T04:26:11;98365.02;;;13.85;67.38
76815;BME280;65768;49.906;19.384;2023-05-29T04:28:48;98364.35;;;13.98;67.21
76815;BME280;65768;49.906;19.384;2023-05-29T04:31:37;98370.30;;;14.15;67.09
76815;BME280;65768;49.906;19.384;2023-05-29T04:34:15;98369.47;;;14.26;66.45
76815;BME280;65768;49.906;19.384;2023-05-29T04:36:50;98372.89;;;14.33;66.49
76815;BME280;65768;49.906;19.384;2023-05-29T04:42:19;98376.30;;;14.57;66.34
76815;BME280;65768;49.906;19.384;2023-05-29T04:44:47;98376.70;;;14.66;66.48
76815;BME280;65768;49.906;19.384;2023-05-29T04:47:22;98374.46;;;14.76;65.95
76815;BME280;65768;49.906;19.384;2023-05-29T04:50:05;98379.31;;;14.80;65.63
76815;BME280;65768;49.906;19.384;2023-05-29T04:52:49;98375.67;;;14.90;65.40
76815;BME280;65768;49.906;19.384;2023-05-29T04:55:35;98373.73;;;15.02;65.27
76815;BME280;65768;49.906;19.384;2023-05-29T04:58:10;98375.70;;;15.13;64.86
76815;BME280;65768;49.906;19.384;2023-05-29T05:01:00;98378.45;;;15.26;64.25
76815;BME280;65768;49.906;19.384;2023-05-29T05:03:31;98376.23;;;15.34;64.18
76815;BME280;65768;49.906;19.384;2023-05-29T05:06:07;98377.63;;;15.45;63.45
76815;BME280;65768;49.906;19.384;2023-05-29T05:08:46;98378.08;;;15.49;63.23
76815;BME280;65768;49.906;19.384;2023-05-29T05:11:27;98376.80;;;15.64;63.29
76815;BME280;65768;49.906;19.384;2023-05-29T05:14:15;98378.77;;;15.72;62.74
76815;BME280;65768;49.906;19.384;2023-05-29T05:16:49;98374.89;;;15.83;62.32
76815;BME280;65768;49.906;19.384;2023-05-29T05:19:23;98372.16;;;15.98;63.02
76815;BME280;65768;49.906;19.384;2023-05-29T05:22:06;98374.54;;;16.11;62.30
76815;BME280;65768;49.906;19.384;2023-05-29T05:24:39;98370.89;;;16.27;62.30
76815;BME280;65768;49.906;19.384;2023-05-29T05:27:17;98374.42;;;16.26;62.23
76815;BME280;65768;49.906;19.384;2023-05-29T05:29:45;98374.41;;;16.36;61.60
76815;BME280;65768;49.906;19.384;2023-05-29T05:32:34;98375.72;;;16.57;61.38
76815;BME280;65768;49.906;19.384;2023-05-29T05:35:14;98374.52;;;16.72;60.98
76815;BME280;65768;49.906;19.384;2023-05-29T05:37:45;98376.54;;;17.01;60.67
76815;BME280;65768;49.906;19.384;2023-05-29T05:40:16;98379.59;;;17.21;60.34
76815;BME280;65768;49.906;19.384;2023-05-29T05:42:45;98382.70;;;17.17;58.67
76815;BME280;65768;49.906;19.384;2023-05-29T05:45:13;98386.46;;;17.36;58.65
76815;BME280;65768;49.906;19.384;2023-05-29T05:47:42;98385.43;;;17.64;59.20
76815;BME280;65768;49.906;19.384;2023-05-29T05:50:13;98383.65;;;17.79;57.96
76815;BME280;65768;49.906;19.384;2023-05-29T05:52:49;98386.71;;;17.84;58.27
76815;BME280;65768;49.906;19.384;2023-05-29T05:55:28;98388.42;;;18.12;57.11
76815;BME280;65768;49.906;19.384;2023-05-29T05:57:59;98385.67;;;18.29;56.58
76815;BME280;65768;49.906;19.384;2023-05-29T06:00:28;98390.89;;;18.44;55.65
76815;BME280;65768;49.906;19.384;2023-05-29T06:02:56;98390.66;;;18.52;54.81
76815;BME280;65768;49.906;19.384;2023-05-29T06:05:31;98383.45;;;18.76;54.96
76815;BME280;65768;49.906;19.384;2023-05-29T06:08:02;98384.75;;;18.92;55.38
76815;BME280;65768;49.906;19.384;2023-05-29T06:10:30;98386.06;;;18.77;54.76
76815;BME280;65768;49.906;19.384;2023-05-29T06:12:58;98388.36;;;18.77;54.67
76815;BME280;65768;49.906;19.384;2023-05-29T06:15:26;98390.33;;;19.00;54.07
76815;BME280;65768;49.906;19.384;2023-05-29T06:17:54;98390.52;;;19.27;53.76
76815;BME280;65768;49.906;19.384;2023-05-29T06:20:23;98390.39;;;19.42;53.24
76815;BME280;65768;49.906;19.384;2023-05-29T06:22:51;98398.60;;;19.23;52.78
76815;BME280;65768;49.906;19.384;2023-05-29T06:25:19;98400.05;;;19.28;53.39
76815;BME280;65768;49.906;19.384;2023-05-29T06:27:47;98407.80;;;19.29;53.75
76815;BME280;65768;49.906;19.384;2023-05-29T06:30:16;98411.70;;;19.62;53.44
76815;BME280;65768;49.906;19.384;2023-05-29T06:32:44;98414.23;;;19.66;53.51
76815;BME280;65768;49.906;19.384;2023-05-29T06:35:12;98413.58;;;19.64;52.92
76815;BME280;65768;49.906;19.384;2023-05-29T06:37:41;98420.13;;;19.64;53.23
76815;BME280;65768;49.906;19.384;2023-05-29T06:40:11;98423.06;;;19.44;53.58
76815;BME280;65768;49.906;19.384;2023-05-29T06:42:39;98422.82;;;19.62;52.64
76815;BME280;65768;49.906;19.384;2023-05-29T06:45:08;98421.84;;;19.82;52.64
76815;BME280;65768;49.906;19.384;2023-05-29T06:47:36;98427.81;;;19.94;52.23
76815;BME280;65768;49.906;19.384;2023-05-29T06:50:05;98428.43;;;20.17;51.84
76815;BME280;65768;49.906;19.384;2023-05-29T06:52:33;98431.17;;;20.24;51.85
76815;BME280;65768;49.906;19.384;2023-05-29T06:55:02;98430.19;;;20.22;50.53
76815;BME280;65768;49.906;19.384;2023-05-29T06:57:30;98430.07;;;20.56;49.27
76815;BME280;65768;49.906;19.384;2023-05-29T06:59:58;98427.20;;;20.72;49.79
76815;BME280;65768;49.906;19.384;2023-05-29T07:02:26;98430.55;;;20.67;49.83
76815;BME280;65768;49.906;19.384;2023-05-29T07:04:54;98431.34;;;20.70;49.40
76815;BME280;65768;49.906;19.384;2023-05-29T07:07:22;98423.10;;;20.86;49.10
76815;BME280;65768;49.906;19.384;2023-05-29T07:09:50;98430.15;;;21.15;48.65
76815;BME280;65768;49.906;19.384;2023-05-29T07:12:18;98429.50;;;21.00;49.16
76815;BME280;65768;49.906;19.384;2023-05-29T07:14:46;98431.77;;;20.78;49.53
76815;BME280;65768;49.906;19.384;2023-05-29T07:17:15;98436.69;;;20.88;48.95
76815;BME280;65768;49.906;19.384;2023-05-29T07:19:44;98438.94;;;20.94;48.95
76815;BME280;65768;49.906;19.384;2023-05-29T07:22:12;98443.46;;;21.10;48.42
76815;BME280;65768;49.906;19.384;2023-05-29T07:24:40;98449.20;;;21.13;49.04
76815;BME280;65768;49.906;19.384;2023-05-29T07:27:08;98449.52;;;21.18;48.38
76815;BME280;65768;49.906;19.384;2023-05-29T07:29:36;98451.27;;;21.05;49.29
76815;BME280;65768;49.906;19.384;2023-05-29T07:32:04;98456.82;;;21.18;49.14
76815;BME280;65768;49.906;19.384;2023-05-29T07:34:33;98457.92;;;21.40;48.85
76815;BME280;65768;49.906;19.384;2023-05-29T07:37:03;98462.82;;;21.46;48.45
76815;BME280;65768;49.906;19.384;2023-05-29T07:39:32;98458.50;;;21.70;47.52
76815;BME280;65768;49.906;19.384;2023-05-29T07:42:02;98456.14;;;21.84;47.11
76815;BME280;65768;49.906;19.384;2023-05-29T07:44:30;98453.81;;;21.72;47.49
76815;BME280;65768;49.906;19.384;2023-05-29T07:46:58;98454.34;;;21.54;47.87
76815;BME280;65768;49.906;19.384;2023-05-29T07:49:27;98455.89;;;21.73;47.59
76815;BME280;65768;49.906;19.384;2023-05-29T07:51:55;98457.88;;;22.02;46.81
76815;BME280;65768;49.906;19.384;2023-05-29T07:54:23;98458.34;;;22.17;47.56
76815;BME280;65768;49.906;19.384;2023-05-29T07:56:51;98457.06;;;22.13;46.49
76815;BME280;65768;49.906;19.384;2023-05-29T07:59:19;98458.79;;;22.06;46.30
76815;BME280;65768;49.906;19.384;2023-05-29T08:01:47;98458.41;;;22.40;46.89
76815;BME280;65768;49.906;19.384;2023-05-29T08:04:15;98456.11;;;22.48;46.20
76815;BME280;65768;49.906;19.384;2023-05-29T08:06:43;98455.40;;;22.52;45.48
76815;BME280;65768;49.906;19.384;2023-05-29T08:09:11;98459.14;;;22.76;44.78
76815;BME280;65768;49.906;19.384;2023-05-29T08:11:39;98463.48;;;22.82;45.01
76815;BME280;65768;49.906;19.384;2023-05-29T08:14:07;98460.17;;;22.77;46.01
76815;BME280;65768;49.906;19.384;2023-05-29T08:16:36;98461.91;;;22.78;44.62
76815;BME280;65768;49.906;19.384;2023-05-29T08:19:04;98461.11;;;22.56;45.11
76815;BME280;65768;49.906;19.384;2023-05-29T08:21:32;98462.21;;;22.95;43.66
76815;BME280;65768;49.906;19.384;2023-05-29T08:24:02;98462.88;;;23.27;43.90
76815;BME280;65768;49.906;19.384;2023-05-29T08:26:33;98461.52;;;23.33;43.12
76815;BME280;65768;49.906;19.384;2023-05-29T08:29:01;98456.20;;;23.43;42.60
76815;BME280;65768;49.906;19.384;2023-05-29T08:31:29;98461.46;;;23.26;42.57
76815;BME280;65768;49.906;19.384;2023-05-29T08:33:58;98464.59;;;23.24;42.26
76815;BME280;65768;49.906;19.384;2023-05-29T08:36:26;98464.96;;;23.83;40.83
76815;BME280;65768;49.906;19.384;2023-05-29T08:38:54;98463.86;;;23.36;41.70
76815;BME280;65768;49.906;19.384;2023-05-29T08:41:31;98462.59;;;23.55;40.11
76815;BME280;65768;49.906;19.384;2023-05-29T08:44:03;98458.67;;;24.06;40.25
76815;BME280;65768;49.906;19.384;2023-05-29T08:46:33;98460.47;;;24.23;40.40
76815;BME280;65768;49.906;19.384;2023-05-29T08:49:03;98459.48;;;24.22;40.06
76815;BME280;65768;49.906;19.384;2023-05-29T08:51:36;98457.02;;;24.28;40.23
76815;BME280;65768;49.906;19.384;2023-05-29T08:54:07;98456.91;;;24.27;41.21
76815;BME280;65768;49.906;19.384;2023-05-29T08:56:36;98454.23;;;24.51;38.88
76815;BME280;65768;49.906;19.384;2023-05-29T08:59:04;98455.63;;;24.34;39.61
76815;BME280;65768;49.906;19.384;2023-05-29T09:01:34;98450.23;;;24.18;40.51
76815;BME280;65768;49.906;19.384;2023-05-29T09:04:06;98446.95;;;24.61;39.60
76815;BME280;65768;49.906;19.384;2023-05-29T09:06:36;98448.66;;;24.69;39.31
76815;BME280;65768;49.906;19.384;2023-05-29T09:09:04;98447.69;;;24.60;37.23
76815;BME280;65768;49.906;19.384;2023-05-29T09:11:33;98447.09;;;24.51;38.57
76815;BME280;65768;49.906;19.384;2023-05-29T09:14:01;98448.45;;;24.46;36.99
76815;BME280;65768;49.906;19.384;2023-05-29T09:16:32;98449.95;;;24.20;38.79
76815;BME280;65768;49.906;19.384;2023-05-29T09:19:06;98449.85;;;24.90;36.88
76815;BME280;65768;49.906;19.384;2023-05-29T09:21:37;98448.08;;;24.67;37.55
76815;BME280;65768;49.906;19.384;2023-05-29T09:24:05;98448.28;;;24.86;38.36
76815;BME280;65768;49.906;19.384;2023-05-29T09:26:34;98449.80;;;25.30;37.05
76815;BME280;65768;49.906;19.384;2023-05-29T09:29:02;98448.24;;;25.58;36.98
76815;BME280;65768;49.906;19.384;2023-05-29T09:31:30;98445.94;;;25.83;37.27
76815;BME280;65768;49.906;19.384;2023-05-29T09:34:03;98443.45;;;25.77;36.85
76815;BME280;65768;49.906;19.384;2023-05-29T09:36:31;98444.81;;;25.47;37.72
76815;BME280;65768;49.906;19.384;2023-05-29T09:39:01;98446.80;;;25.13;38.55
76815;BME280;65768;49.906;19.384;2023-05-29T09:41:31;98446.35;;;25.60;36.74
76815;BME280;65768;49.906;19.384;2023-05-29T09:44:02;98446.44;;;25.33;37.49
76815;BME280;65768;49.906;19.384;2023-05-29T09:46:34;98440.23;;;25.89;36.85
76815;BME280;65768;49.906;19.384;2023-05-29T09:49:02;98441.99;;;25.52;37.75
76815;BME280;65768;49.906;19.384;2023-05-29T09:51:31;98438.38;;;25.96;36.33
76815;BME280;65768;49.906;19.384;2023-05-29T09:53:59;98439.35;;;25.57;37.34
76815;BME280;65768;49.906;19.384;2023-05-29T09:56:29;98438.91;;;25.11;37.60
76815;BME280;65768;49.906;19.384;2023-05-29T09:58:59;98438.00;;;25.53;37.86
76815;BME280;65768;49.906;19.384;2023-05-29T10:01:27;98438.44;;;25.55;37.45
76815;BME280;65768;49.906;19.384;2023-05-29T10:03:55;98442.41;;;25.44;37.07
76815;BME280;65768;49.906;19.384;2023-05-29T10:06:23;98440.90;;;25.62;37.73
76815;BME280;65768;49.906;19.384;2023-05-29T10:08:51;98438.30;;;26.04;36.15
76815;BME280;65768;49.906;19.384;2023-05-29T10:11:21;98437.63;;;25.56;37.52
76815;BME280;65768;49.906;19.384;2023-05-29T10:13:54;98432.20;;;25.70;35.85
76815;BME280;65768;49.906;19.384;2023-05-29T10:16:24;98434.48;;;25.90;35.70
76815;BME280;65768;49.906;19.384;2023-05-29T10:18:54;98435.44;;;25.85;36.49
76815;BME280;65768;49.906;19.384;2023-05-29T10:21:25;98432.44;;;26.30;36.21
76815;BME280;65768;49.906;19.384;2023-05-29T10:23:54;98435.80;;;26.58;36.19
76815;BME280;65768;49.906;19.384;2023-05-29T10:26:25;98437.55;;;26.37;35.51
76815;BME280;65768;49.906;19.384;2023-05-29T10:37:18;98424.44;;;26.88;33.87
76815;BME280;65768;49.906;19.384;2023-05-29T10:39:50;98417.63;;;26.85;34.55
76815;BME280;65768;49.906;19.384;2023-05-29T10:42:45;98415.63;;;27.00;33.73
76815;BME280;65768;49.906;19.384;2023-05-29T10:50:42;98417.86;;;26.79;34.29
76815;BME280;65768;49.906;19.384;2023-05-29T10:53:14;98418.61;;;26.52;33.61
76815;BME280;65768;49.906;19.384;2023-05-29T10:55:44;98415.21;;;26.58;32.58
76815;BME280;65768;49.906;19.384;2023-05-29T10:58:24;98418.00;;;26.59;33.04
76815;BME280;65768;49.906;19.384;2023-05-29T11:00:53;98409.42;;;26.74;33.26
76815;BME280;65768;49.906;19.384;2023-05-29T11:03:25;98407.36;;;27.17;31.70
76815;BME280;65768;49.906;19.384;2023-05-29T11:08:52;98409.84;;;28.27;29.83
76815;BME280;65768;49.906;19.384;2023-05-29T11:13:56;98414.55;;;27.48;30.37
76815;BME280;65768;49.906;19.384;2023-05-29T11:18:52;98410.92;;;27.29;31.33
76815;BME280;65768;49.906;19.384;2023-05-29T11:21:57;98413.27;;;26.81;31.49
76815;BME280;65768;49.906;19.384;2023-05-29T11:24:28;98407.59;;;27.25;31.75
76815;BME280;65768;49.906;19.384;2023-05-29T11:26:57;98412.43;;;26.44;32.71
76815;BME280;65768;49.906;19.384;2023-05-29T11:29:35;98408.39;;;26.61;30.74
76815;BME280;65768;49.906;19.384;2023-05-29T11:32:05;98406.05;;;27.10;30.52
76815;BME280;65768;49.906;19.384;2023-05-29T11:34:39;98403.34;;;27.63;30.48
76815;BME280;65768;49.906;19.384;2023-05-29T11:37:08;98404.53;;;27.99;28.79
76815;BME280;65768;49.906;19.384;2023-05-29T11:39:36;98403.33;;;27.28;30.30
76815;BME280;65768;49.906;19.384;2023-05-29T11:42:05;98406.52;;;27.09;28.67
76815;BME280;65768;49.906;19.384;2023-05-29T11:44:34;98405.69;;;27.52;27.11
76815;BME280;65768;49.906;19.384;2023-05-29T11:47:04;98406.23;;;28.06;24.90
76815;BME280;65768;49.906;19.384;2023-05-29T11:49:35;98401.63;;;27.81;27.62
76815;BME280;65768;49.906;19.384;2023-05-29T11:52:12;98402.18;;;28.28;27.94
76815;BME280;65768;49.906;19.384;2023-05-29T11:54:41;98400.36;;;28.52;27.05
76815;BME280;65768;49.906;19.384;2023-05-29T11:57:19;98399.06;;;28.86;26.53
76815;BME280;65768;49.906;19.384;2023-05-29T11:59:49;98397.39;;;28.92;27.81
76815;BME280;65768;49.906;19.384;2023-05-29T12:02:17;98392.11;;;28.91;26.90
76815;BME280;65768;49.906;19.384;2023-05-29T12:05:03;98389.88;;;28.56;26.81
76815;BME280;65768;49.906;19.384;2023-05-29T12:07:32;98386.02;;;28.16;28.74
76815;BME280;65768;49.906;19.384;2023-05-29T12:10:20;98384.69;;;28.79;27.93
76815;BME280;65768;49.906;19.384;2023-05-29T12:12:54;98377.55;;;29.35;26.44
76815;BME280;65768;49.906;19.384;2023-05-29T12:15:22;98380.20;;;29.63;27.20
76815;BME280;65768;49.906;19.384;2023-05-29T12:17:51;98371.52;;;29.59;26.55
76815;BME280;65768;49.906;19.384;2023-05-29T12:20:23;98369.58;;;29.77;26.89
76815;BME280;65768;49.906;19.384;2023-05-29T12:22:51;98372.92;;;29.64;25.93
76815;BME280;65768;49.906;19.384;2023-05-29T12:25:20;98370.27;;;29.36;26.20
76815;BME280;65768;49.906;19.384;2023-05-29T12:27:48;98372.48;;;28.01;27.54
76815;BME280;65768;49.906;19.384;2023-05-29T12:32:49;98364.33;;;28.34;26.01
76815;BME280;65768;49.906;19.384;2023-05-29T12:35:20;98356.95;;;28.32;28.07
76815;BME280;65768;49.906;19.384;2023-05-29T12:40:19;98359.95;;;29.08;26.83
76815;BME280;65768;49.906;19.384;2023-05-29T12:42:48;98359.59;;;29.31;25.98
76815;BME280;65768;49.906;19.384;2023-05-29T12:45:17;98359.13;;;29.32;25.78
76815;BME280;65768;49.906;19.384;2023-05-29T12:53:03;98354.50;;;28.89;27.48
76815;BME280;65768;49.906;19.384;2023-05-29T12:55:34;98355.73;;;29.36;26.09
76815;BME280;65768;49.906;19.384;2023-05-29T12:58:08;98350.82;;;29.25;26.03
76815;BME280;65768;49.906;19.384;2023-05-29T13:00:38;98349.77;;;29.32;25.94
76815;BME280;65768;49.906;19.384;2023-05-29T13:03:08;98352.45;;;29.47;24.85
76815;BME280;65768;49.906;19.384;2023-05-29T13:05:36;98350.31;;;29.56;25.91
76815;BME280;65768;49.906;19.384;2023-05-29T13:08:06;98348.25;;;30.14;25.48
76815;BME280;65768;49.906;19.384;2023-05-29T13:10:35;98347.84;;;29.41;25.42
76815;BME280;65768;49.906;19.384;2023-05-29T13:13:03;98349.39;;;28.60;26.36
76815;BME280;65768;49.906;19.384;2023-05-29T13:15:32;98341.45;;;28.86;26.53
76815;BME280;65768;49.906;19.384;2023-05-29T13:18:01;98338.36;;;29.79;25.30
76815;BME280;65768;49.906;19.384;2023-05-29T13:20:29;98331.16;;;30.42;24.44
76815;BME280;65768;49.906;19.384;2023-05-29T13:22:59;98329.95;;;30.64;23.53
76815;BME280;65768;49.906;19.384;2023-05-29T13:25:27;98322.98;;;31.02;23.13
76815;BME280;65768;49.906;19.384;2023-05-29T13:27:56;98320.66;;;30.59;23.93
76815;BME280;65768;49.906;19.384;2023-05-29T13:30:24;98321.71;;;30.48;24.43
76815;BME280;65768;49.906;19.384;2023-05-29T13:32:53;98318.00;;;30.74;23.60
76815;BME280;65768;49.906;19.384;2023-05-29T13:35:21;98315.54;;;30.28;25.60
76815;BME280;65768;49.906;19.384;2023-05-29T13:37:49;98315.66;;;29.77;24.52
76815;BME280;65768;49.906;19.384;2023-05-29T13:40:17;98313.05;;;30.43;23.90
76815;BME280;65768;49.906;19.384;2023-05-29T13:42:46;98312.87;;;30.02;24.67
76815;BME280;65768;49.906;19.384;2023-05-29T13:45:14;98307.27;;;30.49;24.21
76815;BME280;65768;49.906;19.384;2023-05-29T13:47:42;98302.33;;;30.76;23.15
76815;BME280;65768;49.906;19.384;2023-05-29T13:50:10;98306.85;;;30.15;23.42
76815;BME280;65768;49.906;19.384;2023-05-29T13:52:38;98300.27;;;30.48;24.49
76815;BME280;65768;49.906;19.384;2023-05-29T13:55:07;98299.73;;;30.55;24.43
76815;BME280;65768;49.906;19.384;2023-05-29T13:57:39;98298.45;;;30.71;24.38
76815;BME280;65768;49.906;19.384;2023-05-29T14:00:10;98295.77;;;31.45;23.60
76815;BME280;65768;49.906;19.384;2023-05-29T14:02:38;98293.73;;;31.46;23.49
76815;BME280;65768;49.906;19.384;2023-05-29T14:05:07;98295.66;;;30.92;24.48
76815;BME280;65768;49.906;19.384;2023-05-29T14:07:44;98296.86;;;30.93;23.96
76815;BME280;65768;49.906;19.384;2023-05-29T14:10:13;98293.35;;;31.39;23.22
76815;BME280;65768;49.906;19.384;2023-05-29T14:12:41;98291.71;;;34.17;20.71
76815;BME280;65768;49.906;19.384;2023-05-29T14:15:10;98286.02;;;36.77;18.39
76815;BME280;65768;49.906;19.384;2023-05-29T14:17:38;98284.73;;;38.56;16.23
76815;BME280;65768;49.906;19.384;2023-05-29T14:20:08;98280.32;;;39.51;15.36
76815;BME280;65768;49.906;19.384;2023-05-29T14:22:36;98282.39;;;39.86;15.35
76815;BME280;65768;49.906;19.384;2023-05-29T14:25:05;98281.43;;;40.94;14.58
76815;BME280;65768;49.906;19.384;2023-05-29T14:27:33;98278.79;;;41.04;13.55
76815;BME280;65768;49.906;19.384;2023-05-29T14:30:02;98275.10;;;40.84;14.70
76815;BME280;65768;49.906;19.384;2023-05-29T14:32:32;98275.34;;;42.07;13.01
76815;BME280;65768;49.906;19.384;2023-05-29T14:35:00;98275.04;;;42.29;12.74
76815;BME280;65768;49.906;19.384;2023-05-29T14:37:29;98274.33;;;42.78;12.21
76815;BME280;65768;49.906;19.384;2023-05-29T14:40:00;98270.39;;;41.22;13.50
76815;BME280;65768;49.906;19.384;2023-05-29T14:42:28;98266.73;;;41.41;13.40
76815;BME280;65768;49.906;19.384;2023-05-29T14:44:56;98269.70;;;41.41;13.35
76815;BME280;65768;49.906;19.384;2023-05-29T14:47:24;98271.27;;;43.21;12.69
76815;BME280;65768;49.906;19.384;2023-05-29T14:49:52;98268.09;;;42.26;12.41
76815;BME280;65768;49.906;19.384;2023-05-29T14:52:21;98264.77;;;43.20;11.62
76815;BME280;65768;49.906;19.384;2023-05-29T14:54:49;98261.52;;;43.71;11.19
76815;BME280;65768;49.906;19.384;2023-05-29T14:57:17;98258.13;;;44.32;10.70
76815;BME280;65768;49.906;19.384;2023-05-29T14:59:45;98256.80;;;43.96;10.93
76815;BME280;65768;49.906;19.384;2023-05-29T15:02:13;98249.18;;;43.57;11.57
76815;BME280;65768;49.906;19.384;2023-05-29T15:04:41;98251.71;;;43.29;11.74
76815;BME280;65768;49.906;19.384;2023-05-29T15:07:09;98252.08;;;44.33;11.15
76815;BME280;65768;49.906;19.384;2023-05-29T15:09:37;98253.11;;;44.22;10.91
76815;BME280;65768;49.906;19.384;2023-05-29T15:12:05;98250.05;;;44.11;10.87
76815;BME280;65768;49.906;19.384;2023-05-29T15:14:35;98251.86;;;44.64;11.67
76815;BME280;65768;49.906;19.384;2023-05-29T15:17:05;98246.83;;;44.84;10.92
76815;BME280;65768;49.906;19.384;2023-05-29T15:19:33;98250.75;;;45.12;10.92
76815;BME280;65768;49.906;19.384;2023-05-29T15:22:01;98245.09;;;45.05;11.05
76815;BME280;65768;49.906;19.384;2023-05-29T15:24:29;98245.00;;;45.21;11.19
76815;BME280;65768;49.906;19.384;2023-05-29T15:26:57;98247.10;;;45.25;10.34
76815;BME280;65768;49.906;19.384;2023-05-29T15:29:25;98247.93;;;43.00;11.50
76815;BME280;65768;49.906;19.384;2023-05-29T15:31:53;98246.52;;;42.41;12.15
76815;BME280;65768;49.906;19.384;2023-05-29T15:34:21;98242.33;;;43.22;11.49
76815;BME280;65768;49.906;19.384;2023-05-29T15:36:50;98242.00;;;43.93;10.88
76815;BME280;65768;49.906;19.384;2023-05-29T15:39:18;98247.42;;;43.91;11.28
76815;BME280;65768;49.906;19.384;2023-05-29T15:41:47;98241.47;;;42.98;11.76
76815;BME280;65768;49.906;19.384;2023-05-29T15:44:15;98238.98;;;42.75;12.39
76815;BME280;65768;49.906;19.384;2023-05-29T15:46:43;98239.14;;;42.45;12.54
76815;BME280;65768;49.906;19.384;2023-05-29T15:49:11;98236.57;;;42.30;12.74
76815;BME280;65768;49.906;19.384;2023-05-29T15:51:39;98238.95;;;42.20;12.18
76815;BME280;65768;49.906;19.384;2023-05-29T15:54:08;98240.44;;;42.44;12.34
76815;BME280;65768;49.906;19.384;2023-05-29T15:56:36;98235.60;;;42.68;12.41
76815;BME280;65768;49.906;19.384;2023-05-29T15:59:04;98236.53;;;43.17;11.62
76815;BME280;65768;49.906;19.384;2023-05-29T16:01:33;98236.64;;;42.93;11.49
76815;BME280;65768;49.906;19.384;2023-05-29T16:04:01;98235.77;;;43.04;11.21
76815;BME280;65768;49.906;19.384;2023-05-29T16:06:30;98239.55;;;42.59;11.69
76815;BME280;65768;49.906;19.384;2023-05-29T16:09:00;98237.60;;;41.97;12.12
76815;BME280;65768;49.906;19.384;2023-05-29T16:11:27;98237.55;;;42.25;12.29
76815;BME280;65768;49.906;19.384;2023-05-29T16:13:56;98238.60;;;41.63;12.61
76815;BME280;65768;49.906;19.384;2023-05-29T16:16:24;98239.55;;;41.15;13.85
76815;BME280;65768;49.906;19.384;2023-05-29T16:18:52;98238.02;;;41.26;13.01